Kelley, Iowa
Current Conditions -  °F | °C
As of 7:05 PM on Sunday 23 Nov 2014 (Local Time) from KAMW Reporting Station
Moderate Rain Moderate Rain  
Wind Chill: 31°   Ceiling: 1500
Heat Index: 41°   Visibility: 4mi
Dew Point: 37°   Wind: 23mph
Humidity: 86%   Direction: 330°NNW
Pressure: 29.38"   Gusts: 37mph
Location:  41.95°N, 93.67°W
Report Text: KAMW 240105Z AUTO 33020G32KT 4SM RA BR OVC015 05/03 A2938 RMK AO2 PK WND 34034/0055 P0007 T00500028 $
Loading
Personal Weather Stations






























Interactive Weather Map New forecast layout! Learn more

10-Day Weather Forecast

Advertisements
Track Severe Weather on mobile